createdAt,value
2022-08-26T00:02:10.726Z,2.98
2022-08-26T00:07:18.245Z,2.98
2022-08-26T00:12:25.841Z,2.99
2022-08-26T00:17:33.744Z,2.99
2022-08-26T00:22:41.777Z,2.98
2022-08-26T00:27:50.484Z,3.0
2022-08-26T00:32:58.880Z,2.99
2022-08-26T00:38:05.671Z,2.98
2022-08-26T00:43:12.220Z,2.98
2022-08-26T00:48:19.569Z,2.99
2022-08-26T00:53:26.619Z,2.99
2022-08-26T00:58:34.391Z,2.99
2022-08-26T01:03:41.672Z,2.98
2022-08-26T01:08:48.886Z,3.0
2022-08-26T01:13:56.347Z,2.99
2022-08-26T01:19:03.674Z,2.98
2022-08-26T01:24:10.843Z,2.99
2022-08-26T01:29:18.643Z,2.98
2022-08-26T01:34:27.349Z,2.98
2022-08-26T01:39:34.627Z,2.98
2022-08-26T01:44:42.150Z,2.99
2022-08-26T01:49:49.679Z,2.98
2022-08-26T01:54:56.365Z,2.98
2022-08-26T02:00:03.418Z,2.98
2022-08-26T02:05:10.917Z,2.98
2022-08-26T02:10:17.825Z,2.99
2022-08-26T02:15:25.042Z,2.98
2022-08-26T02:20:32.600Z,2.99
2022-08-26T02:25:40.257Z,2.98
2022-08-26T02:30:48.531Z,2.98
2022-08-26T02:35:56.179Z,2.98
2022-08-26T02:41:03.138Z,2.98
2022-08-26T02:46:11.637Z,2.99
2022-08-26T02:51:19.323Z,2.98
2022-08-26T02:56:27.413Z,2.99
2022-08-26T03:01:34.295Z,2.98
2022-08-26T03:06:42.131Z,2.98
2022-08-26T03:11:49.733Z,2.98
2022-08-26T03:16:57.511Z,2.99
2022-08-26T03:22:04.368Z,2.99
2022-08-26T03:27:14.007Z,2.98
2022-08-26T03:32:22.485Z,2.97
2022-08-26T03:37:35.269Z,2.98
2022-08-26T03:42:42.152Z,2.98
2022-08-26T03:47:50.043Z,2.97
2022-08-26T03:52:57.497Z,2.98
2022-08-26T03:58:05.738Z,2.99
2022-08-26T04:03:12.839Z,2.98
2022-08-26T04:08:20.998Z,2.98
2022-08-26T04:13:29.169Z,2.98
2022-08-26T04:18:36.450Z,2.98
2022-08-26T04:23:42.937Z,2.98
2022-08-26T04:28:52.238Z,2.98
2022-08-26T04:34:05.802Z,2.99
2022-08-26T04:39:14.010Z,2.99
2022-08-26T04:44:21.416Z,2.98
2022-08-26T04:49:29.469Z,2.98
2022-08-26T04:54:37.049Z,2.99
2022-08-26T04:59:45.666Z,2.99
2022-08-26T05:04:52.706Z,3.0
2022-08-26T05:09:59.134Z,3.0
2022-08-26T05:15:07.098Z,3.0
2022-08-26T05:20:15.145Z,3.02
2022-08-26T05:25:23.945Z,3.01
2022-08-26T05:30:32.412Z,3.01
2022-08-26T05:35:39.769Z,3.01
2022-08-26T05:40:48.088Z,3.01
2022-08-26T05:45:55.395Z,3.02
2022-08-26T05:51:02.639Z,3.01
2022-08-26T05:56:09.484Z,3.01
2022-08-26T06:01:17.844Z,3.0
2022-08-26T06:06:24.244Z,3.01
2022-08-26T06:11:31.755Z,3.0
2022-08-26T06:16:40.480Z,3.0
2022-08-26T06:21:49.135Z,3.01
2022-08-26T06:26:58.094Z,3.02
2022-08-26T06:32:05.941Z,3.02
2022-08-26T06:37:14.660Z,3.02
2022-08-26T06:42:23.054Z,3.01
2022-08-26T06:47:30.813Z,3.02
2022-08-26T06:52:38.009Z,3.02
2022-08-26T06:57:46.328Z,3.01
2022-08-26T07:02:54.238Z,3.02
2022-08-26T07:08:01.784Z,3.02
2022-08-26T07:13:09.645Z,3.01
2022-08-26T07:18:17.521Z,3.03
2022-08-26T07:23:25.365Z,3.02
2022-08-26T07:28:32.310Z,3.02
2022-08-26T07:33:40.229Z,3.02
2022-08-26T07:38:47.116Z,3.02
2022-08-26T07:43:54.800Z,3.01
2022-08-26T07:49:02.481Z,3.02
2022-08-26T07:54:10.333Z,3.02
2022-08-26T07:59:18.620Z,3.01
2022-08-26T08:04:26.116Z,3.02
2022-08-26T08:09:33.659Z,3.02
2022-08-26T08:14:41.473Z,3.03
2022-08-26T08:19:48.711Z,3.02
2022-08-26T08:24:55.959Z,3.03
2022-08-26T08:30:04.243Z,3.01
2022-08-26T08:35:11.693Z,3.02
2022-08-26T08:40:19.691Z,3.01
2022-08-26T08:45:27.290Z,3.02
2022-08-26T08:50:35.189Z,3.02
2022-08-26T08:55:42.318Z,3.02
2022-08-26T09:00:50.124Z,3.03
2022-08-26T09:05:57.469Z,3.03
2022-08-26T09:11:04.542Z,3.02
2022-08-26T09:16:12.379Z,3.02
2022-08-26T09:21:19.963Z,3.02
2022-08-26T09:26:26.774Z,3.02
2022-08-26T09:31:34.574Z,3.02
2022-08-26T09:36:42.256Z,3.02
2022-08-26T09:41:50.807Z,3.03
2022-08-26T09:46:58.568Z,3.02
2022-08-26T09:52:05.964Z,3.03
2022-08-26T09:57:14.656Z,3.02
2022-08-26T10:02:22.059Z,3.02
2022-08-26T10:07:30.133Z,3.03
2022-08-26T10:12:37.337Z,3.03
2022-08-26T10:17:45.683Z,3.02
2022-08-26T10:22:52.592Z,3.02
2022-08-26T10:28:01.171Z,3.02
2022-08-26T10:33:08.049Z,3.02
2022-08-26T10:38:15.930Z,3.02
2022-08-26T10:43:24.108Z,3.03
2022-08-26T10:48:31.708Z,3.01
2022-08-26T10:53:39.402Z,3.02
2022-08-26T10:58:46.172Z,3.03
2022-08-26T11:03:53.177Z,3.02
2022-08-26T11:09:01.019Z,3.02
2022-08-26T11:14:08.974Z,3.02
2022-08-26T11:19:17.201Z,3.02
2022-08-26T11:24:25.634Z,3.02
2022-08-26T11:29:33.008Z,3.03
2022-08-26T11:34:40.254Z,3.03
2022-08-26T11:39:49.275Z,3.02
2022-08-26T11:44:57.381Z,3.02
2022-08-26T11:50:05.232Z,3.03
2022-08-26T11:55:13.483Z,3.03
2022-08-26T12:00:20.785Z,3.02
2022-08-26T12:05:28.573Z,3.02
2022-08-26T12:10:36.399Z,3.03
2022-08-26T12:15:44.288Z,3.02
2022-08-26T12:20:51.365Z,3.03
2022-08-26T12:25:59.261Z,3.02
2022-08-26T12:31:07.826Z,3.03
2022-08-26T12:36:16.402Z,3.02
2022-08-26T12:41:24.176Z,3.02
2022-08-26T12:46:37.665Z,3.02
2022-08-26T12:51:44.225Z,3.02
2022-08-26T12:56:51.420Z,3.03
2022-08-26T13:01:59.266Z,3.03
2022-08-26T13:07:06.713Z,3.02
2022-08-26T13:12:13.702Z,3.02
2022-08-26T13:17:21.446Z,3.03
2022-08-26T13:22:29.669Z,3.03
2022-08-26T13:27:37.180Z,3.02
2022-08-26T13:32:44.546Z,3.02
2022-08-26T13:37:52.177Z,3.02
2022-08-26T13:43:00.317Z,3.02
2022-08-26T13:48:09.388Z,3.02
2022-08-26T13:53:16.317Z,3.03
2022-08-26T13:58:22.935Z,3.02
2022-08-26T14:03:30.400Z,3.03
2022-08-26T14:08:39.059Z,3.02
2022-08-26T14:13:46.199Z,3.02
2022-08-26T14:18:53.709Z,3.02
2022-08-26T14:25:32.975Z,3.04
2022-08-26T14:30:38.935Z,3.03
2022-08-26T14:35:45.501Z,3.02
2022-08-26T14:40:52.661Z,3.02
2022-08-26T14:46:00.505Z,3.03
2022-08-26T14:51:07.597Z,3.02
2022-08-26T14:56:16.594Z,3.02
2022-08-26T15:01:24.766Z,3.04
2022-08-26T15:06:32.247Z,3.02
2022-08-26T15:11:39.789Z,3.03
2022-08-26T15:16:47.450Z,3.02
2022-08-26T15:21:54.168Z,3.03
2022-08-26T15:27:01.374Z,3.03
2022-08-26T15:32:12.359Z,3.03
2022-08-26T15:37:20.217Z,3.03
2022-08-26T15:42:26.134Z,3.03
2022-08-26T15:47:32.700Z,3.03
2022-08-26T15:52:39.851Z,3.02
2022-08-26T15:57:46.637Z,3.03
2022-08-26T16:02:54.168Z,3.03
2022-08-26T16:08:01.066Z,3.04
2022-08-26T16:13:08.433Z,3.03
2022-08-26T16:18:14.892Z,3.03
2022-08-26T16:23:21.827Z,3.02
2022-08-26T16:28:29.331Z,3.02
2022-08-26T16:33:37.502Z,3.02
2022-08-26T16:38:44.634Z,3.02
2022-08-26T16:43:52.480Z,3.02
2022-08-26T16:48:59.401Z,3.02
2022-08-26T16:54:06.036Z,3.02
2022-08-26T16:59:14.304Z,3.02
2022-08-26T17:04:21.712Z,3.02
2022-08-26T17:09:29.824Z,3.02
2022-08-26T17:14:38.171Z,3.02
2022-08-26T17:19:46.011Z,3.02
2022-08-26T17:24:53.876Z,3.02
2022-08-26T17:30:00.542Z,3.03
2022-08-26T17:35:07.744Z,3.01
2022-08-26T17:40:15.354Z,3.01
2022-08-26T17:45:22.821Z,3.02
2022-08-26T17:50:30.671Z,3.02
2022-08-26T17:55:39.088Z,3.01
2022-08-26T18:00:47.024Z,3.02
2022-08-26T18:05:54.008Z,3.01
2022-08-26T18:11:00.249Z,3.02
2022-08-26T18:16:07.260Z,3.02
2022-08-26T18:21:14.462Z,3.02
2022-08-26T18:26:21.657Z,3.01
2022-08-26T18:31:29.822Z,3.02
2022-08-26T18:36:37.424Z,3.01
2022-08-26T18:41:45.294Z,3.01
2022-08-26T18:46:53.052Z,3.02
2022-08-26T18:52:04.111Z,3.01
2022-08-26T18:57:17.049Z,3.02
2022-08-26T19:02:23.580Z,3.02
2022-08-26T19:07:30.202Z,3.02
2022-08-26T19:12:37.340Z,3.02
2022-08-26T19:17:44.536Z,3.01
2022-08-26T19:23:06.730Z,3.02
2022-08-26T19:28:15.297Z,3.0
2022-08-26T19:33:23.046Z,3.01
2022-08-26T19:38:30.291Z,3.01
2022-08-26T19:43:44.729Z,3.02
2022-08-26T19:48:50.778Z,3.01
2022-08-26T19:53:58.618Z,3.01
2022-08-26T19:59:05.179Z,3.01
2022-08-26T20:04:12.955Z,3.01
2022-08-26T20:09:20.380Z,3.01
2022-08-26T20:14:28.062Z,3.01
2022-08-26T20:19:35.257Z,3.01
2022-08-26T20:24:42.459Z,3.01
2022-08-26T20:29:50.809Z,3.01
2022-08-26T20:34:58.894Z,3.01
2022-08-26T20:40:08.332Z,3.01
2022-08-26T20:45:15.306Z,3.01
2022-08-26T20:50:22.300Z,3.01
2022-08-26T20:55:29.633Z,3.01
2022-08-26T21:00:38.037Z,3.01
2022-08-26T21:05:43.881Z,3.0
2022-08-26T21:10:49.851Z,3.01
2022-08-26T21:15:58.807Z,3.0
2022-08-26T21:21:06.005Z,3.0
2022-08-26T21:26:13.343Z,3.01
2022-08-26T21:31:20.840Z,3.01
2022-08-26T21:36:28.372Z,3.0
2022-08-26T21:41:37.296Z,3.0
2022-08-26T21:46:45.036Z,2.99
2022-08-26T21:51:52.407Z,3.0
2022-08-26T21:56:59.932Z,3.0
2022-08-26T22:03:38.499Z,3.0
2022-08-26T22:08:45.019Z,3.0
2022-08-26T22:13:52.217Z,3.0
2022-08-26T22:18:59.479Z,3.0
2022-08-26T22:24:06.948Z,3.0
2022-08-26T22:29:15.721Z,3.0
2022-08-26T22:34:22.642Z,3.01
2022-08-26T22:39:30.173Z,3.0
2022-08-26T22:44:38.277Z,3.0
2022-08-26T22:49:45.817Z,3.0
2022-08-26T22:54:53.980Z,3.01
2022-08-26T23:00:02.017Z,3.0
2022-08-26T23:05:09.336Z,3.0
2022-08-26T23:10:16.563Z,3.0
2022-08-26T23:15:23.738Z,3.0
2022-08-26T23:20:32.531Z,3.01
2022-08-26T23:25:41.071Z,3.01
2022-08-26T23:30:49.344Z,3.0
2022-08-26T23:35:57.616Z,3.0
2022-08-26T23:41:04.860Z,3.01
2022-08-26T23:46:12.712Z,3.01
2022-08-26T23:51:20.602Z,3.01
2022-08-26T23:56:28.414Z,3.0
